sensor_id;sensor_type;location;lat;lon;timestamp;temperature;humidity
13835;DHT22;6988;52.614;13.500;2023-05-10T00:02:14;9.00;99.90
13835;DHT22;6988;52.614;13.500;2023-05-10T00:07:06;8.90;99.90
13835;DHT22;6988;52.614;13.500;2023-05-10T00:11:57;8.90;99.90
13835;DHT22;6988;52.614;13.500;2023-05-10T00:16:51;8.80;99.90
13835;DHT22;6988;52.614;13.500;2023-05-10T00:21:43;8.80;99.90
13835;DHT22;6988;52.614;13.500;2023-05-10T00:33:07;8.70;99.90
13835;DHT22;6988;52.614;13.500;2023-05-10T00:38:00;8.60;99.90
13835;DHT22;6988;52.614;13.500;2023-05-10T00:42:52;8.60;99.90
13835;DHT22;6988;52.614;13.500;2023-05-10T00:47:43;8.60;99.90
13835;DHT22;6988;52.614;13.500;2023-05-10T00:52:37;8.70;99.90
13835;DHT22;6988;52.614;13.500;2023-05-10T00:57:29;8.70;99.90
13835;DHT22;6988;52.614;13.500;2023-05-10T01:02:20;8.90;99.90
13835;DHT22;6988;52.614;13.500;2023-05-10T01:07:12;9.00;99.90
13835;DHT22;6988;52.614;13.500;2023-05-10T01:12:06;9.00;99.90
13835;DHT22;6988;52.614;13.500;2023-05-10T01:16:59;9.00;99.90
13835;DHT22;6988;52.614;13.500;2023-05-10T01:21:59;8.90;99.90
13835;DHT22;6988;52.614;13.500;2023-05-10T01:27:17;8.90;99.90
13835;DHT22;6988;52.614;13.500;2023-05-10T01:32:26;9.00;99.90
13835;DHT22;6988;52.614;13.500;2023-05-10T01:37:30;9.00;99.90
13835;DHT22;6988;52.614;13.500;2023-05-10T01:42:38;9.10;99.90
13835;DHT22;6988;52.614;13.500;2023-05-10T01:47:40;9.20;99.90
13835;DHT22;6988;52.614;13.500;2023-05-10T01:52:41;9.10;99.90
13835;DHT22;6988;52.614;13.500;2023-05-10T01:57:36;9.10;99.90
13835;DHT22;6988;52.614;13.500;2023-05-10T02:02:34;9.10;99.90
13835;DHT22;6988;52.614;13.500;2023-05-10T02:07:29;9.20;99.90
13835;DHT22;6988;52.614;13.500;2023-05-10T02:12:24;9.20;99.90
13835;DHT22;6988;52.614;13.500;2023-05-10T02:17:18;9.20;99.90
13835;DHT22;6988;52.614;13.500;2023-05-10T02:22:16;9.10;99.90
13835;DHT22;6988;52.614;13.500;2023-05-10T02:27:11;9.10;99.90
13835;DHT22;6988;52.614;13.500;2023-05-10T02:32:08;9.00;99.90
13835;DHT22;6988;52.614;13.500;2023-05-10T02:37:02;9.00;99.90
13835;DHT22;6988;52.614;13.500;2023-05-10T02:41:58;8.90;99.90
13835;DHT22;6988;52.614;13.500;2023-05-10T02:46:52;8.90;99.90
13835;DHT22;6988;52.614;13.500;2023-05-10T02:51:50;8.80;99.90
13835;DHT22;6988;52.614;13.500;2023-05-10T02:56:52;8.90;99.90
13835;DHT22;6988;52.614;13.500;2023-05-10T03:01:53;8.90;99.90
13835;DHT22;6988;52.614;13.500;2023-05-10T03:06:45;8.80;99.90
13835;DHT22;6988;52.614;13.500;2023-05-10T03:11:49;8.70;99.90
13835;DHT22;6988;52.614;13.500;2023-05-10T03:16:50;8.70;99.90
13835;DHT22;6988;52.614;13.500;2023-05-10T03:21:53;8.60;99.90
13835;DHT22;6988;52.614;13.500;2023-05-10T03:26:54;8.60;99.90
13835;DHT22;6988;52.614;13.500;2023-05-10T03:31:48;8.50;99.90
13835;DHT22;6988;52.614;13.500;2023-05-10T03:36:42;8.60;99.90
13835;DHT22;6988;52.614;13.500;2023-05-10T03:41:34;8.50;99.90
13835;DHT22;6988;52.614;13.500;2023-05-10T03:46:26;8.60;99.90
13835;DHT22;6988;52.614;13.500;2023-05-10T03:51:21;8.60;99.90
13835;DHT22;6988;52.614;13.500;2023-05-10T04:02:53;8.70;99.90
13835;DHT22;6988;52.614;13.500;2023-05-10T04:07:46;8.90;99.90
13835;DHT22;6988;52.614;13.500;2023-05-10T04:13:36;8.90;99.90
13835;DHT22;6988;52.614;13.500;2023-05-10T04:18:29;9.00;99.90
13835;DHT22;6988;52.614;13.500;2023-05-10T04:24:23;9.10;99.90
13835;DHT22;6988;52.614;13.500;2023-05-10T04:35:47;9.50;99.90
13835;DHT22;6988;52.614;13.500;2023-05-10T04:40:39;9.70;99.90
13835;DHT22;6988;52.614;13.500;2023-05-10T04:45:31;9.80;99.90
13835;DHT22;6988;52.614;13.500;2023-05-10T04:50:23;10.00;99.90
13835;DHT22;6988;52.614;13.500;2023-05-10T04:55:16;10.20;99.90
13835;DHT22;6988;52.614;13.500;2023-05-10T05:00:09;10.40;99.90
13835;DHT22;6988;52.614;13.500;2023-05-10T05:05:02;10.50;99.90
13835;DHT22;6988;52.614;13.500;2023-05-10T05:09:54;10.70;99.90
13835;DHT22;6988;52.614;13.500;2023-05-10T05:14:47;10.90;99.90
13835;DHT22;6988;52.614;13.500;2023-05-10T05:19:38;11.10;99.90
13835;DHT22;6988;52.614;13.500;2023-05-10T05:24:35;11.30;99.90
13835;DHT22;6988;52.614;13.500;2023-05-10T05:29:28;11.60;99.90
13835;DHT22;6988;52.614;13.500;2023-05-10T05:34:21;11.80;99.90
13835;DHT22;6988;52.614;13.500;2023-05-10T05:39:13;12.10;99.90
13835;DHT22;6988;52.614;13.500;2023-05-10T05:44:05;12.30;99.90
13835;DHT22;6988;52.614;13.500;2023-05-10T05:48:57;12.50;99.90
13835;DHT22;6988;52.614;13.500;2023-05-10T05:53:50;12.70;99.90
13835;DHT22;6988;52.614;13.500;2023-05-10T05:58:42;12.90;99.90
13835;DHT22;6988;52.614;13.500;2023-05-10T06:03:34;13.10;99.90
13835;DHT22;6988;52.614;13.500;2023-05-10T06:08:25;13.30;99.90
13835;DHT22;6988;52.614;13.500;2023-05-10T06:13:18;13.50;99.90
13835;DHT22;6988;52.614;13.500;2023-05-10T06:18:10;13.60;99.90
13835;DHT22;6988;52.614;13.500;2023-05-10T06:23:02;13.90;99.90
13835;DHT22;6988;52.614;13.500;2023-05-10T06:27:54;14.10;99.90
13835;DHT22;6988;52.614;13.500;2023-05-10T06:32:49;14.30;99.90
13835;DHT22;6988;52.614;13.500;2023-05-10T06:57:42;15.70;99.90
13835;DHT22;6988;52.614;13.500;2023-05-10T07:02:34;16.00;99.90
13835;DHT22;6988;52.614;13.500;2023-05-10T07:07:26;16.10;99.90
13835;DHT22;6988;52.614;13.500;2023-05-10T07:12:18;16.20;99.90
13835;DHT22;6988;52.614;13.500;2023-05-10T07:17:11;16.20;99.90
13835;DHT22;6988;52.614;13.500;2023-05-10T07:22:03;16.50;99.90
13835;DHT22;6988;52.614;13.500;2023-05-10T07:26:55;16.60;99.90
13835;DHT22;6988;52.614;13.500;2023-05-10T07:31:47;16.40;99.90
13835;DHT22;6988;52.614;13.500;2023-05-10T07:36:40;16.70;99.90
13835;DHT22;6988;52.614;13.500;2023-05-10T07:41:32;16.80;99.90
13835;DHT22;6988;52.614;13.500;2023-05-10T07:46:24;17.10;99.90
13835;DHT22;6988;52.614;13.500;2023-05-10T07:51:16;17.10;99.90
13835;DHT22;6988;52.614;13.500;2023-05-10T07:56:23;17.60;99.90
13835;DHT22;6988;52.614;13.500;2023-05-10T08:07:49;17.70;99.90
13835;DHT22;6988;52.614;13.500;2023-05-10T08:12:43;17.90;99.90
13835;DHT22;6988;52.614;13.500;2023-05-10T08:17:34;18.00;99.90
13835;DHT22;6988;52.614;13.500;2023-05-10T08:22:26;18.30;99.90
13835;DHT22;6988;52.614;13.500;2023-05-10T08:27:18;18.40;99.90
13835;DHT22;6988;52.614;13.500;2023-05-10T08:32:11;18.30;99.90
13835;DHT22;6988;52.614;13.500;2023-05-10T08:43:36;18.80;99.90
13835;DHT22;6988;52.614;13.500;2023-05-10T08:48:30;18.90;99.90
13835;DHT22;6988;52.614;13.500;2023-05-10T08:53:26;19.40;99.90
13835;DHT22;6988;52.614;13.500;2023-05-10T08:58:20;19.90;99.90
13835;DHT22;6988;52.614;13.500;2023-05-10T09:03:12;20.20;99.90
13835;DHT22;6988;52.614;13.500;2023-05-10T09:08:07;20.20;99.90
13835;DHT22;6988;52.614;13.500;2023-05-10T09:13:00;20.50;99.90
13835;DHT22;6988;52.614;13.500;2023-05-10T09:17:54;20.60;99.90
13835;DHT22;6988;52.614;13.500;2023-05-10T09:22:47;20.70;99.90
13835;DHT22;6988;52.614;13.500;2023-05-10T09:27:44;21.00;99.90
13835;DHT22;6988;52.614;13.500;2023-05-10T09:32:38;21.00;99.90
13835;DHT22;6988;52.614;13.500;2023-05-10T09:37:31;21.30;99.90
13835;DHT22;6988;52.614;13.500;2023-05-10T09:42:23;21.70;99.90
13835;DHT22;6988;52.614;13.500;2023-05-10T09:47:18;21.20;99.90
13835;DHT22;6988;52.614;13.500;2023-05-10T09:52:10;21.40;99.90
13835;DHT22;6988;52.614;13.500;2023-05-10T09:57:02;21.40;99.90
13835;DHT22;6988;52.614;13.500;2023-05-10T10:01:56;21.50;99.90
13835;DHT22;6988;52.614;13.500;2023-05-10T10:07:00;22.00;99.90
13835;DHT22;6988;52.614;13.500;2023-05-10T10:11:54;21.90;99.90
13835;DHT22;6988;52.614;13.500;2023-05-10T10:16:47;22.10;99.90
13835;DHT22;6988;52.614;13.500;2023-05-10T10:21:40;22.20;99.90
13835;DHT22;6988;52.614;13.500;2023-05-10T10:26:35;22.10;99.90
13835;DHT22;6988;52.614;13.500;2023-05-10T10:31:36;22.50;99.90
13835;DHT22;6988;52.614;13.500;2023-05-10T10:36:32;22.60;99.90
13835;DHT22;6988;52.614;13.500;2023-05-10T10:41:33;22.90;99.90
13835;DHT22;6988;52.614;13.500;2023-05-10T10:46:26;23.10;99.90
13835;DHT22;6988;52.614;13.500;2023-05-10T10:51:18;23.10;99.90
13835;DHT22;6988;52.614;13.500;2023-05-10T10:56:12;23.10;99.90
13835;DHT22;6988;52.614;13.500;2023-05-10T11:01:15;22.50;99.90
13835;DHT22;6988;52.614;13.500;2023-05-10T11:06:07;23.20;99.90
13835;DHT22;6988;52.614;13.500;2023-05-10T11:11:05;23.40;99.90
13835;DHT22;6988;52.614;13.500;2023-05-10T11:16:10;23.60;99.90
13835;DHT22;6988;52.614;13.500;2023-05-10T11:21:17;22.90;99.90
13835;DHT22;6988;52.614;13.500;2023-05-10T11:26:09;22.80;99.90
13835;DHT22;6988;52.614;13.500;2023-05-10T11:31:01;23.30;99.90
13835;DHT22;6988;52.614;13.500;2023-05-10T11:35:54;23.20;99.90
13835;DHT22;6988;52.614;13.500;2023-05-10T11:40:46;23.80;99.30
13835;DHT22;6988;52.614;13.500;2023-05-10T11:45:40;25.10;96.40
13835;DHT22;6988;52.614;13.500;2023-05-10T11:50:32;24.70;95.70
13835;DHT22;6988;52.614;13.500;2023-05-10T11:55:27;24.50;96.10
13835;DHT22;6988;52.614;13.500;2023-05-10T12:00:20;23.50;98.00
13835;DHT22;6988;52.614;13.500;2023-05-10T12:05:13;24.60;96.40
13835;DHT22;6988;52.614;13.500;2023-05-10T12:10:07;25.30;95.20
13835;DHT22;6988;52.614;13.500;2023-05-10T12:15:02;25.20;95.50
13835;DHT22;6988;52.614;13.500;2023-05-10T12:19:59;25.70;95.80
13835;DHT22;6988;52.614;13.500;2023-05-10T12:25:04;24.70;93.00
13835;DHT22;6988;52.614;13.500;2023-05-10T12:29:59;25.40;94.30
13835;DHT22;6988;52.614;13.500;2023-05-10T12:34:52;26.70;92.60
13835;DHT22;6988;52.614;13.500;2023-05-10T12:39:44;25.90;93.10
13835;DHT22;6988;52.614;13.500;2023-05-10T12:44:37;25.00;92.70
13835;DHT22;6988;52.614;13.500;2023-05-10T12:49:29;25.50;94.70
13835;DHT22;6988;52.614;13.500;2023-05-10T12:54:22;24.70;92.10
13835;DHT22;6988;52.614;13.500;2023-05-10T12:59:14;25.50;94.40
13835;DHT22;6988;52.614;13.500;2023-05-10T13:04:06;25.80;93.20
13835;DHT22;6988;52.614;13.500;2023-05-10T13:08:58;25.70;94.20
13835;DHT22;6988;52.614;13.500;2023-05-10T13:13:51;25.60;93.20
13835;DHT22;6988;52.614;13.500;2023-05-10T13:18:43;25.80;91.60
13835;DHT22;6988;52.614;13.500;2023-05-10T13:23:35;26.20;94.60
13835;DHT22;6988;52.614;13.500;2023-05-10T13:28:27;25.60;92.80
13835;DHT22;6988;52.614;13.500;2023-05-10T13:33:21;25.50;91.70
13835;DHT22;6988;52.614;13.500;2023-05-10T13:38:13;25.40;90.90
13835;DHT22;6988;52.614;13.500;2023-05-10T13:43:05;25.30;91.80
13835;DHT22;6988;52.614;13.500;2023-05-10T13:47:57;25.40;90.50
13835;DHT22;6988;52.614;13.500;2023-05-10T13:52:50;25.20;90.10
13835;DHT22;6988;52.614;13.500;2023-05-10T14:02:59;24.80;89.70
13835;DHT22;6988;52.614;13.500;2023-05-10T14:07:53;24.90;87.30
13835;DHT22;6988;52.614;13.500;2023-05-10T14:12:45;24.70;81.00
13835;DHT22;6988;52.614;13.500;2023-05-10T14:17:37;25.00;82.60
13835;DHT22;6988;52.614;13.500;2023-05-10T14:22:28;24.50;82.60
13835;DHT22;6988;52.614;13.500;2023-05-10T14:33:53;25.80;83.60
13835;DHT22;6988;52.614;13.500;2023-05-10T14:38:45;25.60;79.10
13835;DHT22;6988;52.614;13.500;2023-05-10T14:43:37;26.20;77.20
13835;DHT22;6988;52.614;13.500;2023-05-10T14:48:29;25.90;77.00
13835;DHT22;6988;52.614;13.500;2023-05-10T14:53:22;25.50;74.10
13835;DHT22;6988;52.614;13.500;2023-05-10T14:58:14;24.60;80.40
13835;DHT22;6988;52.614;13.500;2023-05-10T15:03:06;24.20;77.60
13835;DHT22;6988;52.614;13.500;2023-05-10T15:08:00;24.40;85.20
13835;DHT22;6988;52.614;13.500;2023-05-10T15:12:56;24.30;82.20
13835;DHT22;6988;52.614;13.500;2023-05-10T15:17:52;24.00;81.90
13835;DHT22;6988;52.614;13.500;2023-05-10T15:23:38;23.80;81.40
13835;DHT22;6988;52.614;13.500;2023-05-10T15:28:31;23.60;86.30
13835;DHT22;6988;52.614;13.500;2023-05-10T15:33:23;23.20;83.80
13835;DHT22;6988;52.614;13.500;2023-05-10T15:38:16;23.50;85.70
13835;DHT22;6988;52.614;13.500;2023-05-10T15:43:07;24.10;86.50
13835;DHT22;6988;52.614;13.500;2023-05-10T15:54:28;23.90;85.80
13835;DHT22;6988;52.614;13.500;2023-05-10T15:59:20;23.80;85.00
13835;DHT22;6988;52.614;13.500;2023-05-10T16:04:11;23.10;84.20
13835;DHT22;6988;52.614;13.500;2023-05-10T16:09:03;22.60;86.20
13835;DHT22;6988;52.614;13.500;2023-05-10T16:13:56;22.60;90.10
13835;DHT22;6988;52.614;13.500;2023-05-10T16:18:48;22.40;89.80
13835;DHT22;6988;52.614;13.500;2023-05-10T16:23:40;22.50;88.50
13835;DHT22;6988;52.614;13.500;2023-05-10T16:35:07;21.60;91.30
13835;DHT22;6988;52.614;13.500;2023-05-10T16:40:00;21.60;91.80
13835;DHT22;6988;52.614;13.500;2023-05-10T16:44:53;21.70;92.20
13835;DHT22;6988;52.614;13.500;2023-05-10T16:49:45;21.60;92.90
13835;DHT22;6988;52.614;13.500;2023-05-10T16:54:38;21.60;93.30
13835;DHT22;6988;52.614;13.500;2023-05-10T16:59:30;21.60;93.90
13835;DHT22;6988;52.614;13.500;2023-05-10T17:04:22;21.50;94.30
13835;DHT22;6988;52.614;13.500;2023-05-10T17:09:14;21.40;92.70
13835;DHT22;6988;52.614;13.500;2023-05-10T17:14:07;21.40;93.70
13835;DHT22;6988;52.614;13.500;2023-05-10T17:18:59;21.40;95.00
13835;DHT22;6988;52.614;13.500;2023-05-10T17:23:51;21.40;99.90
13835;DHT22;6988;52.614;13.500;2023-05-10T17:28:43;21.20;99.90
13835;DHT22;6988;52.614;13.500;2023-05-10T17:33:36;21.10;99.90
13835;DHT22;6988;52.614;13.500;2023-05-10T17:38:28;20.90;99.90
13835;DHT22;6988;52.614;13.500;2023-05-10T17:43:20;20.70;99.90
13835;DHT22;6988;52.614;13.500;2023-05-10T17:48:12;20.60;99.90
13835;DHT22;6988;52.614;13.500;2023-05-10T17:53:05;20.40;99.90
13835;DHT22;6988;52.614;13.500;2023-05-10T17:57:57;20.20;99.90
13835;DHT22;6988;52.614;13.500;2023-05-10T18:02:49;20.10;99.90
13835;DHT22;6988;52.614;13.500;2023-05-10T18:07:41;20.00;99.90
13835;DHT22;6988;52.614;13.500;2023-05-10T18:12:34;19.80;99.90
13835;DHT22;6988;52.614;13.500;2023-05-10T18:17:26;19.60;99.90
13835;DHT22;6988;52.614;13.500;2023-05-10T18:22:18;19.50;99.90
13835;DHT22;6988;52.614;13.500;2023-05-10T18:27:10;19.30;99.90
13835;DHT22;6988;52.614;13.500;2023-05-10T18:32:03;19.20;99.90
13835;DHT22;6988;52.614;13.500;2023-05-10T18:36:56;19.20;99.90
13835;DHT22;6988;52.614;13.500;2023-05-10T18:41:48;19.00;99.90
13835;DHT22;6988;52.614;13.500;2023-05-10T18:46:44;18.80;99.90
13835;DHT22;6988;52.614;13.500;2023-05-10T18:57:46;18.70;99.90
13835;DHT22;6988;52.614;13.500;2023-05-10T19:02:39;18.60;99.90
13835;DHT22;6988;52.614;13.500;2023-05-10T19:07:31;18.40;99.90
13835;DHT22;6988;52.614;13.500;2023-05-10T19:12:23;18.30;99.90
13835;DHT22;6988;52.614;13.500;2023-05-10T19:17:16;18.20;99.90
13835;DHT22;6988;52.614;13.500;2023-05-10T19:27:15;18.00;99.90
13835;DHT22;6988;52.614;13.500;2023-05-10T19:32:07;17.80;99.90
13835;DHT22;6988;52.614;13.500;2023-05-10T19:37:02;17.60;99.90
13835;DHT22;6988;52.614;13.500;2023-05-10T19:41:53;17.50;99.90
13835;DHT22;6988;52.614;13.500;2023-05-10T19:46:45;17.40;99.90
13835;DHT22;6988;52.614;13.500;2023-05-10T19:51:37;17.40;99.90
13835;DHT22;6988;52.614;13.500;2023-05-10T19:56:31;17.30;99.90
13835;DHT22;6988;52.614;13.500;2023-05-10T20:07:54;17.10;99.90
13835;DHT22;6988;52.614;13.500;2023-05-10T20:12:48;17.00;99.90
13835;DHT22;6988;52.614;13.500;2023-05-10T20:17:41;17.00;99.90
13835;DHT22;6988;52.614;13.500;2023-05-10T20:22:34;16.90;99.90
13835;DHT22;6988;52.614;13.500;2023-05-10T20:27:25;16.80;99.90
13835;DHT22;6988;52.614;13.500;2023-05-10T20:32:20;16.80;99.90
13835;DHT22;6988;52.614;13.500;2023-05-10T20:37:11;16.70;99.90
13835;DHT22;6988;52.614;13.500;2023-05-10T20:47:03;16.50;99.90
13835;DHT22;6988;52.614;13.500;2023-05-10T20:51:57;16.40;99.90
13835;DHT22;6988;52.614;13.500;2023-05-10T20:56:49;16.20;99.90
13835;DHT22;6988;52.614;13.500;2023-05-10T21:01:41;16.10;99.90
13835;DHT22;6988;52.614;13.500;2023-05-10T21:06:33;16.00;99.90
13835;DHT22;6988;52.614;13.500;2023-05-10T21:11:26;15.80;99.90
13835;DHT22;6988;52.614;13.500;2023-05-10T21:22:49;15.60;99.90
13835;DHT22;6988;52.614;13.500;2023-05-10T21:27:42;15.40;99.90
13835;DHT22;6988;52.614;13.500;2023-05-10T21:32:35;15.30;99.90
13835;DHT22;6988;52.614;13.500;2023-05-10T21:37:27;15.20;99.90
13835;DHT22;6988;52.614;13.500;2023-05-10T21:42:18;15.10;99.90
13835;DHT22;6988;52.614;13.500;2023-05-10T22:05:01;14.60;99.90
13835;DHT22;6988;52.614;13.500;2023-05-10T22:09:54;14.40;99.90
13835;DHT22;6988;52.614;13.500;2023-05-10T22:14:46;14.20;99.90
13835;DHT22;6988;52.614;13.500;2023-05-10T22:19:38;14.10;99.90
13835;DHT22;6988;52.614;13.500;2023-05-10T22:24:31;14.00;99.90
13835;DHT22;6988;52.614;13.500;2023-05-10T22:29:23;13.90;99.90
13835;DHT22;6988;52.614;13.500;2023-05-10T22:34:15;13.80;99.90
13835;DHT22;6988;52.614;13.500;2023-05-10T22:39:08;13.70;99.90
13835;DHT22;6988;52.614;13.500;2023-05-10T22:44:01;13.60;99.90
13835;DHT22;6988;52.614;13.500;2023-05-10T22:48:54;13.50;99.90
13835;DHT22;6988;52.614;13.500;2023-05-10T22:53:46;13.40;99.90
13835;DHT22;6988;52.614;13.500;2023-05-10T22:58:38;13.40;99.90
13835;DHT22;6988;52.614;13.500;2023-05-10T23:03:32;13.20;99.90
13835;DHT22;6988;52.614;13.500;2023-05-10T23:08:24;13.20;99.90
13835;DHT22;6988;52.614;13.500;2023-05-10T23:13:15;13.00;99.90
13835;DHT22;6988;52.614;13.500;2023-05-10T23:18:09;12.90;99.90
13835;DHT22;6988;52.614;13.500;2023-05-10T23:23:03;12.90;99.90
13835;DHT22;6988;52.614;13.500;2023-05-10T23:27:56;12.80;99.90
13835;DHT22;6988;52.614;13.500;2023-05-10T23:32:48;12.70;99.90
13835;DHT22;6988;52.614;13.500;2023-05-10T23:37:40;12.70;99.90
13835;DHT22;6988;52.614;13.500;2023-05-10T23:42:33;12.60;99.90
13835;DHT22;6988;52.614;13.500;2023-05-10T23:47:25;12.50;99.90
13835;DHT22;6988;52.614;13.500;2023-05-10T23:52:17;12.40;99.90
13835;DHT22;6988;52.614;13.500;2023-05-10T23:57:12;12.30;99.90
